createdAt,value
2018-09-10T00:00:34.806Z,16.00
2018-09-10T00:03:03.914Z,15.90
2018-09-10T00:05:32.974Z,15.80
2018-09-10T00:08:01.927Z,15.80
2018-09-10T00:10:30.916Z,15.70
2018-09-10T00:12:59.936Z,15.70
2018-09-10T00:15:29.034Z,15.60
2018-09-10T00:17:58.097Z,15.50
2018-09-10T00:20:27.113Z,15.40
2018-09-10T00:22:56.312Z,15.30
2018-09-10T00:25:25.352Z,15.30
2018-09-10T00:27:54.360Z,15.30
2018-09-10T00:30:23.398Z,15.30
2018-09-10T00:32:52.403Z,15.30
2018-09-10T00:35:22.424Z,15.20
2018-09-10T00:37:51.460Z,15.30
2018-09-10T00:40:20.470Z,15.30
2018-09-10T00:42:49.813Z,15.40
2018-09-10T00:45:18.905Z,15.40
2018-09-10T00:47:47.929Z,15.40
2018-09-10T00:50:17.025Z,15.40
2018-09-10T00:52:46.030Z,15.40
2018-09-10T00:55:15.099Z,15.40
2018-09-10T00:57:44.121Z,15.40
2018-09-10T01:00:13.186Z,15.40
2018-09-10T01:02:42.270Z,15.40
2018-09-10T01:05:11.510Z,15.30
2018-09-10T01:07:40.567Z,15.30
2018-09-10T01:10:09.658Z,15.20
2018-09-10T01:12:41.062Z,15.20
2018-09-10T01:15:10.996Z,15.20
2018-09-10T01:17:40.006Z,15.20
2018-09-10T01:20:09.032Z,15.10
2018-09-10T01:22:38.083Z,15.10
2018-09-10T01:25:07.132Z,15.00
2018-09-10T01:27:36.189Z,15.00
2018-09-10T01:30:05.625Z,14.90
2018-09-10T01:32:34.658Z,14.80
2018-09-10T01:35:04.807Z,14.80
2018-09-10T01:37:34.824Z,14.80
2018-09-10T01:40:04.197Z,14.80
2018-09-10T01:42:33.599Z,14.80
2018-09-10T01:45:02.791Z,14.80
2018-09-10T01:47:31.938Z,14.80
2018-09-10T01:50:00.979Z,14.80
2018-09-10T01:52:29.982Z,14.80
2018-09-10T01:54:59.005Z,14.70
2018-09-10T01:57:28.133Z,14.70
2018-09-10T01:59:57.783Z,14.70
2018-09-10T02:02:26.869Z,14.60
2018-09-10T02:04:55.966Z,14.60
2018-09-10T02:07:24.995Z,14.50
2018-09-10T02:09:54.085Z,14.50
2018-09-10T02:12:23.996Z,14.50
2018-09-10T02:14:53.811Z,14.40
2018-09-10T02:17:23.224Z,14.40
2018-09-10T02:19:52.285Z,14.50
2018-09-10T02:22:21.784Z,14.50
2018-09-10T02:24:51.100Z,14.50
2018-09-10T02:27:20.115Z,14.60
2018-09-10T02:29:49.365Z,14.60
2018-09-10T02:32:18.397Z,14.60
2018-09-10T02:34:47.468Z,14.60
2018-09-10T02:37:16.523Z,14.70
2018-09-10T02:39:45.616Z,14.70
2018-09-10T02:42:14.658Z,14.80
2018-09-10T02:44:43.890Z,14.70
2018-09-10T02:47:12.940Z,14.70
2018-09-10T02:49:41.937Z,14.60
2018-09-10T02:52:10.970Z,14.60
2018-09-10T02:54:40.021Z,14.60
2018-09-10T02:57:09.306Z,14.50
2018-09-10T02:59:38.377Z,14.60
2018-09-10T03:02:07.615Z,14.50
2018-09-10T03:04:36.703Z,14.40
2018-09-10T03:07:06.319Z,14.40
2018-09-10T03:09:35.684Z,14.40
2018-09-10T03:12:04.732Z,14.40
2018-09-10T03:14:33.771Z,14.40
2018-09-10T03:17:02.848Z,14.30
2018-09-10T03:19:31.814Z,14.30
2018-09-10T03:22:01.435Z,14.20
2018-09-10T03:24:30.518Z,14.20
2018-09-10T03:26:59.560Z,14.10
2018-09-10T03:29:28.565Z,14.00
2018-09-10T03:31:57.587Z,13.90
2018-09-10T03:34:26.596Z,13.80
2018-09-10T03:36:55.808Z,13.80
2018-09-10T03:39:24.865Z,13.80
2018-09-10T03:41:54.000Z,13.80
2018-09-10T03:44:22.983Z,13.80
2018-09-10T03:46:51.975Z,13.80
2018-09-10T03:49:21.389Z,13.80
2018-09-10T03:51:50.380Z,13.80
2018-09-10T03:54:19.441Z,13.80
2018-09-10T03:56:48.515Z,13.80
2018-09-10T04:02:52.893Z,13.80
2018-09-10T04:05:22.101Z,13.80
2018-09-10T04:07:51.121Z,13.70
2018-09-10T04:10:20.217Z,13.70
2018-09-10T04:12:49.243Z,13.70
2018-09-10T04:15:18.637Z,13.70
2018-09-10T04:17:48.639Z,13.70
2018-09-10T04:20:17.700Z,13.70
2018-09-10T04:22:46.778Z,13.60
2018-09-10T04:25:15.768Z,13.60
2018-09-10T04:27:44.803Z,13.60
2018-09-10T04:30:15.602Z,13.60
2018-09-10T04:32:44.682Z,13.60
2018-09-10T04:35:13.789Z,13.60
2018-09-10T04:37:43.477Z,13.60
2018-09-10T04:40:12.543Z,13.70
2018-09-10T04:42:41.558Z,13.60
2018-09-10T04:45:10.654Z,13.60
2018-09-10T04:47:39.672Z,13.60
2018-09-10T04:50:09.046Z,13.60
2018-09-10T04:52:38.324Z,13.50
2018-09-10T04:55:07.427Z,13.50
2018-09-10T04:57:36.475Z,13.50
2018-09-10T05:00:05.802Z,13.50
2018-09-10T05:02:35.299Z,13.50
2018-09-10T05:05:05.203Z,13.50
2018-09-10T05:07:34.467Z,13.60
2018-09-10T05:10:03.804Z,13.50
2018-09-10T05:12:33.008Z,13.50
2018-09-10T05:15:02.047Z,13.60
2018-09-10T05:17:31.054Z,13.60
2018-09-10T05:20:00.099Z,13.60
2018-09-10T05:22:29.247Z,13.70
2018-09-10T05:24:58.407Z,13.80
2018-09-10T05:27:27.482Z,13.90
2018-09-10T05:29:57.752Z,13.90
2018-09-10T05:32:26.783Z,14.00
2018-09-10T05:34:55.759Z,14.10
2018-09-10T05:37:24.797Z,14.20
2018-09-10T05:39:53.820Z,14.20
2018-09-10T05:42:22.859Z,14.30
2018-09-10T05:44:51.906Z,14.30
2018-09-10T05:47:21.070Z,14.30
2018-09-10T05:49:50.939Z,14.30
2018-09-10T05:52:20.086Z,14.40
2018-09-10T05:54:49.122Z,14.40
2018-09-10T05:57:18.130Z,14.50
2018-09-10T05:59:47.228Z,14.50
2018-09-10T06:02:16.257Z,14.60
2018-09-10T06:04:45.398Z,14.60
2018-09-10T06:07:20.999Z,14.60
2018-09-10T06:09:50.004Z,14.70
2018-09-10T06:12:19.415Z,14.60
2018-09-10T06:14:48.561Z,14.60
2018-09-10T06:17:17.691Z,14.70
2018-09-10T06:19:46.742Z,14.70
2018-09-10T06:22:15.796Z,14.90
2018-09-10T06:24:44.838Z,15.10
2018-09-10T06:27:13.880Z,15.20
2018-09-10T06:29:43.287Z,15.30
2018-09-10T06:32:12.335Z,15.40
2018-09-10T06:34:41.610Z,15.50
2018-09-10T06:37:10.618Z,15.50
2018-09-10T06:39:39.832Z,15.50
2018-09-10T06:42:08.922Z,15.60
2018-09-10T06:44:37.986Z,15.60
2018-09-10T06:47:07.069Z,15.60
2018-09-10T06:49:36.271Z,15.60
2018-09-10T06:52:05.990Z,15.60
2018-09-10T06:54:35.136Z,15.60
2018-09-10T06:57:04.511Z,15.70
2018-09-10T06:59:33.649Z,15.70
2018-09-10T07:02:03.241Z,15.70
2018-09-10T07:04:32.301Z,15.60
2018-09-10T07:07:01.786Z,15.70
2018-09-10T07:09:30.881Z,15.80
2018-09-10T07:11:59.899Z,15.80
2018-09-10T07:14:28.893Z,15.80
2018-09-10T07:16:57.929Z,15.90
2018-09-10T07:19:26.978Z,16.00
2018-09-10T07:21:56.026Z,16.20
2018-09-10T07:24:25.035Z,16.30
2018-09-10T07:26:55.329Z,16.40
2018-09-10T07:29:24.345Z,16.50
2018-09-10T07:31:53.361Z,16.50
2018-09-10T07:34:22.385Z,16.50
2018-09-10T07:36:51.582Z,16.60
2018-09-10T07:39:20.665Z,16.70
2018-09-10T07:41:49.782Z,16.80
2018-09-10T07:44:18.884Z,16.90
2018-09-10T07:46:48.099Z,17.10
2018-09-10T07:49:17.835Z,17.30
2018-09-10T07:51:46.888Z,17.60
2018-09-10T07:54:16.115Z,17.90
2018-09-10T07:56:45.183Z,18.20
2018-09-10T07:59:14.327Z,18.60
2018-09-10T08:01:43.534Z,18.80
2018-09-10T08:04:12.525Z,19.00
2018-09-10T08:06:41.599Z,19.30
2018-09-10T08:09:10.999Z,19.40
2018-09-10T08:11:40.117Z,19.40
2018-09-10T08:14:09.183Z,19.50
2018-09-10T08:16:38.267Z,19.60
2018-09-10T08:19:07.889Z,19.60
2018-09-10T08:21:36.945Z,19.50
2018-09-10T08:24:06.233Z,19.50
2018-09-10T08:26:35.396Z,19.60
2018-09-10T08:29:04.816Z,19.70
2018-09-10T08:31:34.245Z,19.80
2018-09-10T08:34:03.262Z,20.00
2018-09-10T08:36:32.790Z,20.10
2018-09-10T08:39:01.919Z,20.20
2018-09-10T08:41:31.076Z,20.20
2018-09-10T08:44:00.236Z,20.40
2018-09-10T08:46:29.272Z,20.60
2018-09-10T08:48:58.712Z,20.80
2018-09-10T08:51:27.757Z,21.10
2018-09-10T08:53:56.944Z,21.20
2018-09-10T08:56:26.408Z,21.30
2018-09-10T08:58:56.491Z,21.50
2018-09-10T09:01:25.520Z,21.70
2018-09-10T09:03:54.540Z,21.80
2018-09-10T09:06:23.706Z,21.70
2018-09-10T09:08:52.861Z,21.60
2018-09-10T09:11:21.941Z,21.50
2018-09-10T09:13:50.965Z,21.40
2018-09-10T09:16:19.999Z,21.50
2018-09-10T09:18:49.061Z,21.60
2018-09-10T09:21:18.050Z,21.80
2018-09-10T09:23:47.106Z,22.00
2018-09-10T09:26:16.310Z,22.20
2018-09-10T09:28:45.528Z,22.30
2018-09-10T09:31:14.551Z,22.80
2018-09-10T09:33:43.558Z,23.20
2018-09-10T09:36:17.887Z,23.30
2018-09-10T09:38:52.676Z,23.40
2018-09-10T09:41:26.908Z,23.60
2018-09-10T09:44:01.432Z,23.70
2018-09-10T09:46:30.483Z,23.80
2018-09-10T09:48:59.451Z,23.60
2018-09-10T09:51:28.468Z,23.40
2018-09-10T09:53:57.468Z,23.50
2018-09-10T09:56:26.527Z,23.60
2018-09-10T09:58:55.789Z,23.90
2018-09-10T10:01:30.235Z,24.10
2018-09-10T10:04:03.516Z,24.20
2018-09-10T10:06:32.803Z,24.40
2018-09-10T10:09:01.783Z,24.50
2018-09-10T10:11:30.926Z,24.70
2018-09-10T10:14:00.937Z,25.00
2018-09-10T10:16:30.041Z,24.90
2018-09-10T10:18:59.190Z,25.10
2018-09-10T10:21:28.230Z,25.30
2018-09-10T10:23:57.610Z,25.60
2018-09-10T10:26:26.633Z,25.80
2018-09-10T10:28:55.690Z,26.00
2018-09-10T10:31:24.688Z,26.00
2018-09-10T10:33:53.707Z,25.90
2018-09-10T10:36:22.721Z,25.70
2018-09-10T10:38:51.756Z,25.50
2018-09-10T10:41:20.906Z,25.60
2018-09-10T10:43:49.958Z,25.80
2018-09-10T10:46:19.087Z,26.00
2018-09-10T10:48:48.385Z,26.10
2018-09-10T10:51:17.743Z,26.30
2018-09-10T10:53:46.736Z,26.60
2018-09-10T10:56:15.948Z,26.60
2018-09-10T10:58:44.962Z,26.70
2018-09-10T11:01:13.956Z,26.80
2018-09-10T11:03:42.995Z,26.80
2018-09-10T11:06:12.588Z,27.30
2018-09-10T11:08:42.182Z,28.40
2018-09-10T11:11:11.743Z,29.90
2018-09-10T11:13:41.364Z,32.10
2018-09-10T11:16:10.939Z,33.60
2018-09-10T11:18:40.500Z,34.70
2018-09-10T11:21:10.074Z,35.20
2018-09-10T11:23:39.861Z,35.70
2018-09-10T11:26:09.502Z,35.90
2018-09-10T11:28:39.250Z,36.60
2018-09-10T11:31:09.019Z,35.70
2018-09-10T11:33:38.756Z,36.20
2018-09-10T11:36:08.482Z,35.90
2018-09-10T11:38:38.040Z,35.90
2018-09-10T11:41:07.885Z,36.30
2018-09-10T11:43:37.467Z,36.60
2018-09-10T11:46:07.098Z,36.60
2018-09-10T11:48:36.713Z,36.40
2018-09-10T11:51:06.654Z,36.90
2018-09-10T11:53:36.218Z,37.40
2018-09-10T11:56:06.284Z,37.00
2018-09-10T11:58:35.859Z,36.00
2018-09-10T12:01:05.526Z,35.30
2018-09-10T12:03:35.339Z,36.00
2018-09-10T12:06:04.947Z,37.30
2018-09-10T12:08:34.569Z,38.10
2018-09-10T12:11:03.988Z,39.40
2018-09-10T12:13:33.707Z,39.60
2018-09-10T12:16:03.426Z,38.40
2018-09-10T12:18:33.289Z,37.80
2018-09-10T12:21:02.888Z,36.80
2018-09-10T12:23:32.502Z,35.70
2018-09-10T12:26:02.124Z,34.40
2018-09-10T12:28:31.962Z,33.90
2018-09-10T12:31:01.571Z,33.50
2018-09-10T12:33:31.310Z,33.00
2018-09-10T12:36:00.909Z,32.80
2018-09-10T12:38:30.482Z,32.70
2018-09-10T12:41:00.074Z,32.60
2018-09-10T12:43:29.628Z,32.70
2018-09-10T12:45:59.663Z,33.00
2018-09-10T12:48:29.261Z,33.00
2018-09-10T12:50:58.904Z,32.90
2018-09-10T12:53:28.775Z,33.10
2018-09-10T12:55:58.406Z,32.60
2018-09-10T12:58:28.005Z,32.10
2018-09-10T13:00:57.590Z,31.90
2018-09-10T13:03:27.282Z,31.80
2018-09-10T13:05:57.103Z,31.50
2018-09-10T13:08:26.727Z,32.00
2018-09-10T13:10:56.530Z,32.70
2018-09-10T13:13:26.138Z,33.10
2018-09-10T13:15:55.704Z,34.50
2018-09-10T13:18:25.322Z,35.80
2018-09-10T13:20:56.634Z,36.70
2018-09-10T13:23:26.207Z,37.50
2018-09-10T13:25:55.882Z,37.50
2018-09-10T13:28:25.805Z,38.40
2018-09-10T13:30:55.413Z,39.00
2018-09-10T13:33:25.006Z,38.70
2018-09-10T13:35:54.595Z,37.70
2018-09-10T13:38:24.551Z,35.70
2018-09-10T13:40:54.166Z,36.20
2018-09-10T13:43:23.779Z,37.70
2018-09-10T13:45:53.115Z,38.60
2018-09-10T13:48:22.758Z,38.10
2018-09-10T13:50:52.363Z,36.90
2018-09-10T13:53:21.994Z,36.30
2018-09-10T13:55:51.725Z,36.80
2018-09-10T13:58:21.345Z,36.80
2018-09-10T14:00:51.350Z,36.20
2018-09-10T14:03:21.051Z,34.60
2018-09-10T14:05:50.903Z,33.40
2018-09-10T14:08:20.838Z,33.90
2018-09-10T14:10:50.554Z,36.30
2018-09-10T14:13:20.067Z,39.20
2018-09-10T14:15:49.410Z,41.00
2018-09-10T14:18:18.758Z,40.10
2018-09-10T14:20:48.268Z,38.10
2018-09-10T14:23:17.858Z,35.80
2018-09-10T14:25:47.738Z,34.60
2018-09-10T14:28:17.356Z,34.80
2018-09-10T14:30:49.006Z,33.80
2018-09-10T14:33:18.609Z,34.50
2018-09-10T14:35:48.223Z,35.00
2018-09-10T14:38:17.783Z,35.30
2018-09-10T14:40:47.545Z,36.20
2018-09-10T14:43:17.152Z,37.50
2018-09-10T14:45:46.772Z,38.90
2018-09-10T14:48:16.126Z,40.10
2018-09-10T14:50:45.882Z,38.20
2018-09-10T14:53:15.466Z,37.30
2018-09-10T14:55:45.305Z,35.10
2018-09-10T14:58:14.952Z,33.80
2018-09-10T15:00:44.671Z,32.80
2018-09-10T15:03:14.279Z,32.60
2018-09-10T15:05:43.947Z,32.40
2018-09-10T15:08:13.830Z,32.00
2018-09-10T15:10:43.766Z,32.70
2018-09-10T15:13:13.369Z,33.70
2018-09-10T15:15:43.079Z,32.70
2018-09-10T15:18:12.646Z,32.50
2018-09-10T15:20:42.421Z,33.10
2018-09-10T15:23:12.010Z,33.00
2018-09-10T15:25:41.641Z,31.60
2018-09-10T15:28:11.219Z,30.90
2018-09-10T15:30:40.778Z,30.70
2018-09-10T15:33:10.444Z,29.70
2018-09-10T15:35:40.273Z,29.50
2018-09-10T15:38:09.945Z,29.00
2018-09-10T15:40:39.607Z,28.70
2018-09-10T15:43:09.380Z,28.90
2018-09-10T15:45:38.977Z,28.90
2018-09-10T15:48:08.661Z,28.50
2018-09-10T15:50:38.337Z,28.30
2018-09-10T15:53:07.932Z,28.50
2018-09-10T15:55:37.546Z,28.60
2018-09-10T15:58:07.190Z,28.60
2018-09-10T16:00:37.541Z,28.70
2018-09-10T16:03:07.164Z,28.70
2018-09-10T16:05:36.228Z,28.40
2018-09-10T16:08:05.819Z,28.10
2018-09-10T16:10:35.585Z,28.10
2018-09-10T16:13:04.699Z,28.00
2018-09-10T16:15:33.693Z,27.80
2018-09-10T16:18:02.752Z,27.60
2018-09-10T16:20:31.792Z,27.80
2018-09-10T16:23:01.443Z,27.80
2018-09-10T16:25:31.068Z,28.10
2018-09-10T16:28:00.653Z,28.20
2018-09-10T16:30:30.204Z,27.80
2018-09-10T16:32:59.227Z,27.70
2018-09-10T16:35:28.243Z,27.60
2018-09-10T16:37:58.140Z,27.60
2018-09-10T16:40:27.252Z,27.60
2018-09-10T16:42:56.284Z,27.50
2018-09-10T16:45:25.863Z,27.50
2018-09-10T16:47:55.680Z,27.60
2018-09-10T16:50:24.713Z,27.60
2018-09-10T16:52:53.931Z,27.40
2018-09-10T16:55:23.291Z,27.40
2018-09-10T16:57:52.309Z,27.20
2018-09-10T17:00:21.309Z,27.20
2018-09-10T17:02:50.387Z,27.30
2018-09-10T17:05:19.447Z,27.30
2018-09-10T17:07:48.538Z,27.30
2018-09-10T17:10:17.573Z,27.00
2018-09-10T17:12:46.598Z,26.80
2018-09-10T17:15:15.618Z,26.80
2018-09-10T17:17:44.650Z,26.70
2018-09-10T17:20:13.695Z,26.60
2018-09-10T17:22:42.774Z,26.50
2018-09-10T17:25:11.796Z,26.50
2018-09-10T17:27:40.925Z,26.30
2018-09-10T17:30:09.965Z,26.10
2018-09-10T17:32:39.206Z,26.00
2018-09-10T17:35:08.251Z,25.90
2018-09-10T17:37:37.249Z,25.80
2018-09-10T17:40:06.729Z,25.70
2018-09-10T17:42:35.886Z,25.60
2018-09-10T17:45:05.283Z,25.50
2018-09-10T17:47:34.318Z,25.30
2018-09-10T17:50:03.444Z,25.10
2018-09-10T17:52:32.489Z,24.90
2018-09-10T17:55:01.522Z,24.80
2018-09-10T17:57:30.601Z,24.50
2018-09-10T17:59:59.854Z,24.40
2018-09-10T18:02:29.056Z,24.20
2018-09-10T18:04:58.434Z,24.10
2018-09-10T18:07:27.588Z,24.10
2018-09-10T18:09:56.649Z,24.00
2018-09-10T18:12:25.675Z,23.90
2018-09-10T18:14:54.723Z,23.80
2018-09-10T18:17:23.714Z,23.70
2018-09-10T18:19:54.574Z,23.60
2018-09-10T18:22:23.571Z,23.50
2018-09-10T18:24:53.552Z,23.50
2018-09-10T18:27:22.793Z,23.40
2018-09-10T18:29:51.830Z,23.30
2018-09-10T18:32:20.933Z,23.30
2018-09-10T18:34:49.985Z,23.30
2018-09-10T18:37:19.004Z,23.20
2018-09-10T18:39:47.991Z,23.20
2018-09-10T18:42:17.021Z,23.10
2018-09-10T18:44:46.088Z,23.10
2018-09-10T18:47:15.084Z,23.10
2018-09-10T18:49:44.191Z,23.00
2018-09-10T18:52:13.242Z,23.00
2018-09-10T18:54:42.265Z,22.90
2018-09-10T18:57:11.704Z,22.80
2018-09-10T18:59:40.813Z,22.70
2018-09-10T19:02:09.839Z,22.70
2018-09-10T19:04:39.405Z,22.70
2018-09-10T19:07:08.499Z,22.60
2018-09-10T19:09:37.566Z,22.50
2018-09-10T19:12:06.881Z,22.40
2018-09-10T19:14:35.917Z,22.40
2018-09-10T19:17:04.923Z,22.30
2018-09-10T19:19:33.955Z,22.30
2018-09-10T19:22:02.981Z,22.20
2018-09-10T19:24:32.762Z,22.20
2018-09-10T19:27:02.009Z,22.10
2018-09-10T19:29:31.024Z,22.10
2018-09-10T19:32:00.076Z,22.00
2018-09-10T19:34:29.186Z,22.00
2018-09-10T19:36:58.306Z,21.90
2018-09-10T19:39:27.299Z,21.80
2018-09-10T19:41:56.331Z,21.80
2018-09-10T19:44:25.328Z,21.70
2018-09-10T19:46:54.342Z,21.70
2018-09-10T19:49:23.345Z,21.70
2018-09-10T19:51:52.736Z,21.60
2018-09-10T19:54:22.177Z,21.60
2018-09-10T19:56:51.213Z,21.60
2018-09-10T19:59:20.301Z,21.50
2018-09-10T20:01:49.395Z,21.50
2018-09-10T20:04:18.528Z,21.40
2018-09-10T20:06:47.512Z,21.40
2018-09-10T20:09:16.569Z,21.40
2018-09-10T20:11:45.573Z,21.30
2018-09-10T20:14:14.574Z,21.30
2018-09-10T20:16:43.622Z,21.30
2018-09-10T20:19:12.984Z,21.30
2018-09-10T20:21:41.991Z,21.20
2018-09-10T20:24:11.014Z,21.20
2018-09-10T20:26:40.436Z,21.20
2018-09-10T20:29:09.503Z,21.10
2018-09-10T20:31:38.547Z,21.10
2018-09-10T20:34:08.961Z,21.00
2018-09-10T20:36:38.881Z,21.00
2018-09-10T20:39:11.492Z,21.00
2018-09-10T20:41:40.684Z,20.90
2018-09-10T20:44:10.215Z,20.80
2018-09-10T20:46:40.279Z,20.80
2018-09-10T20:49:09.289Z,20.70
2018-09-10T20:51:39.007Z,20.70
2018-09-10T20:54:07.994Z,20.70
2018-09-10T20:56:36.994Z,20.70
2018-09-10T20:59:06.038Z,20.60
2018-09-10T21:01:35.072Z,20.60
2018-09-10T21:04:04.107Z,20.50
2018-09-10T21:06:33.149Z,20.40
2018-09-10T21:09:02.233Z,20.30
2018-09-10T21:11:31.236Z,20.20
2018-09-10T21:14:00.303Z,20.10
2018-09-10T21:16:29.485Z,20.00
2018-09-10T21:18:58.524Z,20.00
2018-09-10T21:21:27.608Z,20.00
2018-09-10T21:23:56.629Z,19.90
2018-09-10T21:26:25.695Z,19.80
2018-09-10T21:28:55.301Z,19.80
2018-09-10T21:31:24.310Z,19.70
2018-09-10T21:33:53.346Z,19.70
2018-09-10T21:36:22.404Z,19.60
2018-09-10T21:38:51.779Z,19.70
2018-09-10T21:41:20.850Z,19.60
2018-09-10T21:43:49.891Z,19.60
2018-09-10T21:46:18.908Z,19.50
2018-09-10T21:48:48.034Z,19.50
2018-09-10T21:51:17.030Z,19.50
2018-09-10T21:53:46.129Z,19.40
2018-09-10T21:56:15.332Z,19.40
2018-09-10T21:58:44.310Z,19.30
2018-09-10T22:01:13.695Z,19.30
2018-09-10T22:03:42.728Z,19.20
2018-09-10T22:06:11.960Z,19.20
2018-09-10T22:08:40.961Z,19.20
2018-09-10T22:11:09.984Z,19.10
2018-09-10T22:13:39.029Z,19.10
2018-09-10T22:16:08.068Z,19.00
2018-09-10T22:18:37.138Z,19.00
2018-09-10T22:21:06.144Z,19.00
2018-09-10T22:23:35.225Z,19.00
2018-09-10T22:26:04.203Z,19.00
2018-09-10T22:28:33.320Z,18.80
2018-09-10T22:31:02.338Z,18.80
2018-09-10T22:33:31.521Z,18.70
2018-09-10T22:36:00.531Z,18.70
2018-09-10T22:38:29.630Z,18.70
2018-09-10T22:40:58.656Z,18.70
2018-09-10T22:43:28.032Z,18.70
2018-09-10T22:45:57.127Z,18.70
2018-09-10T22:48:26.160Z,18.70
2018-09-10T22:50:55.515Z,18.60
2018-09-10T22:53:24.938Z,18.50
2018-09-10T22:55:53.958Z,18.50
2018-09-10T22:58:22.976Z,18.50
2018-09-10T23:00:52.608Z,18.50
2018-09-10T23:03:21.609Z,18.50
2018-09-10T23:05:50.628Z,18.40
2018-09-10T23:08:19.660Z,18.40
2018-09-10T23:10:48.662Z,18.30
2018-09-10T23:13:17.683Z,18.30
2018-09-10T23:15:46.731Z,18.20
2018-09-10T23:18:15.764Z,18.10
2018-09-10T23:20:44.825Z,18.00
2018-09-10T23:23:14.036Z,17.90
2018-09-10T23:25:43.137Z,17.90
2018-09-10T23:28:12.287Z,17.80
2018-09-10T23:30:41.397Z,17.80
2018-09-10T23:33:10.418Z,17.70
2018-09-10T23:35:46.145Z,17.70
2018-09-10T23:38:15.179Z,17.70
2018-09-10T23:40:44.331Z,17.70
2018-09-10T23:43:13.314Z,17.60
2018-09-10T23:45:42.556Z,17.60
2018-09-10T23:48:11.556Z,17.60
2018-09-10T23:50:40.596Z,17.50
2018-09-10T23:53:09.611Z,17.50
2018-09-10T23:55:38.644Z,17.50
2018-09-10T23:58:07.698Z,17.50
